Airfield :
LOGIN :

Register | Disclaimer

   EN    FR    IT 

 










Legend :    VFR   Marginal VFR   IFR   Intensive IFR   Very Intensive IFR
Visi :
Ceiling :
>= 8 km
>= 3000ft
5 to 8 km
1000 to 3000 ft
1500m to 5 km
500 to 1000 ft
800 to 1500m
200 to 500 ft
< 800m
< 200 ft
Symbols :   Thunderstorms  Fog  Heavy snow  Heavy precipitations  Wind > 20 kt
SIGMETs :     Misc.  Thunderstorms  Icing  Turbulence  Mountain Waves  Volcanic Ashes






- Airport Elevation : 423 ft
- IATA code : PIS


LFBI - Poitiers

CURRENT METAR :
  • 221100Z AUTO 04008KT 8000 NSC 05/M00 Q1031 NOSIG

EXPIRED METARs :
  • 221030Z AUTO 03008KT 8000 NCD 03/00 Q1031 NOSIG
  • 221000Z AUTO 04006KT CAVOK 02/M00 Q1032 NOSIG
  • 220930Z AUTO 04009KT CAVOK 01/M01 Q1032 NOSIG
  • 220900Z AUTO 02010KT 6000 NSC M00/M01 Q1032 NOSIG
  • 220830Z AUTO 02010KT 6000 NSC M01/M02 Q1032 NOSIG

TAF TAF LFBI
Valid from the 22 at 06:00 until the 23 at 06:00 UTC


220500Z 2206/2306 04007KT CAVOK



MET'MAP, your aeronautical weather chart ! - Copyright ORBIFLY December 2007 - Disclaimer

ORBIFLY MET'MAP TEAM :

Programming & Development : Alexandra Zaïnal
Concept & original design : Baudouin d'Aumeries
Assistance for programming : Marc-Olivier Méhu
Technical & hardware support : Manuel Goepfert

Contact : metmap@orbifly.com




SOURCES & CREDITS :

   NOAA